createdAt,value
2022-10-05T00:01:48.567Z,101661.18
2022-10-05T00:04:19.495Z,101662.45
2022-10-05T00:06:57.212Z,101663.51
2022-10-05T00:09:33.430Z,101669.08
2022-10-05T00:12:15.332Z,101671.53
2022-10-05T00:14:49.551Z,101672.19
2022-10-05T00:17:24.160Z,101672.83
2022-10-05T00:19:56.719Z,101674.83
2022-10-05T00:22:30.362Z,101674.13
2022-10-05T00:25:04.034Z,101673.30
2022-10-05T00:27:38.046Z,101674.85
2022-10-05T00:30:16.634Z,101671.75
2022-10-05T00:32:48.925Z,101676.98
2022-10-05T00:35:22.212Z,101674.58
2022-10-05T00:37:56.787Z,101677.17
2022-10-05T00:40:38.581Z,101678.30
2022-10-05T00:43:25.737Z,101684.64
2022-10-05T00:46:02.337Z,101682.39
2022-10-05T00:48:40.030Z,101687.48
2022-10-05T00:51:27.361Z,101685.66
2022-10-05T00:54:12.561Z,101681.85
2022-10-05T00:57:12.362Z,101670.13
2022-10-05T00:59:53.611Z,101665.43
2022-10-05T01:02:31.930Z,101665.27
2022-10-05T01:05:13.593Z,101663.29
2022-10-05T01:07:51.551Z,101669.21
2022-10-05T01:10:28.857Z,101674.41
2022-10-05T01:13:06.946Z,101680.88
2022-10-05T01:15:43.904Z,101693.48
2022-10-05T01:18:22.506Z,101699.20
2022-10-05T01:21:01.295Z,101694.34
2022-10-05T01:24:04.212Z,101697.08
2022-10-05T01:26:49.618Z,101695.40
2022-10-05T01:29:25.756Z,101704.83
2022-10-05T01:32:04.240Z,101702.42
2022-10-05T01:34:39.665Z,101706.91
2022-10-05T01:37:16.719Z,101711.16
2022-10-05T01:39:57.285Z,101714.69
2022-10-05T01:42:36.915Z,101715.73
2022-10-05T01:45:12.503Z,101723.45
2022-10-05T01:47:48.180Z,101725.66
2022-10-05T01:50:27.369Z,101729.63
2022-10-05T01:53:04.865Z,101735.88
2022-10-05T01:55:42.714Z,101743.18
2022-10-05T01:58:21.291Z,101749.23
2022-10-05T02:01:00.419Z,101748.45
2022-10-05T02:03:37.345Z,101753.98
2022-10-05T02:06:13.591Z,101759.09
2022-10-05T02:08:48.105Z,101758.77
2022-10-05T02:11:21.331Z,101760.09
2022-10-05T02:13:57.144Z,101764.05
2022-10-05T02:16:33.077Z,101764.63
2022-10-05T02:19:06.804Z,101772.83
2022-10-05T02:21:39.523Z,101778.20
2022-10-05T02:24:13.357Z,101784.37
2022-10-05T02:26:45.743Z,101791.70
2022-10-05T02:29:16.748Z,101798.02
2022-10-05T02:31:52.403Z,101802.08
2022-10-05T02:34:29.801Z,101802.95
2022-10-05T02:37:13.417Z,101808.38
2022-10-05T02:39:53.672Z,101808.20
2022-10-05T02:42:31.869Z,101806.42
2022-10-05T02:45:11.728Z,101803.65
2022-10-05T02:47:48.746Z,101806.88
2022-10-05T02:50:27.377Z,101808.85
2022-10-05T02:53:08.494Z,101817.20
2022-10-05T02:55:45.812Z,101818.64
2022-10-05T02:58:20.733Z,101817.95
2022-10-05T03:00:57.101Z,101820.09
2022-10-05T03:03:33.758Z,101822.19
2022-10-05T03:06:10.264Z,101822.63
2022-10-05T03:08:45.725Z,101824.48
2022-10-05T03:11:26.911Z,101827.55
2022-10-05T03:14:05.596Z,101826.91
2022-10-05T03:16:47.873Z,101835.05
2022-10-05T03:19:37.127Z,101839.13
2022-10-05T03:22:15.692Z,101843.11
2022-10-05T03:25:07.057Z,101851.55
2022-10-05T03:27:45.785Z,101856.77
2022-10-05T03:30:19.853Z,101859.43
2022-10-05T03:32:59.968Z,101866.10
2022-10-05T03:35:36.978Z,101868.16
2022-10-05T03:38:13.368Z,101867.11
2022-10-05T03:40:52.102Z,101865.90
2022-10-05T03:43:41.456Z,101868.79
2022-10-05T03:46:18.516Z,101870.49
2022-10-05T03:48:56.868Z,101878.58
2022-10-05T03:51:36.579Z,101876.58
2022-10-05T03:54:13.401Z,101882.27
2022-10-05T03:56:49.129Z,101886.14
2022-10-05T03:59:25.232Z,101888.48
2022-10-05T04:02:01.747Z,101889.39
2022-10-05T04:04:38.928Z,101893.52
2022-10-05T04:07:16.845Z,101892.96
2022-10-05T04:09:50.824Z,101891.73
2022-10-05T04:12:26.836Z,101895.81
2022-10-05T04:15:02.076Z,101895.64
2022-10-05T04:17:36.341Z,101894.33
2022-10-05T04:20:16.356Z,101899.02
2022-10-05T04:22:54.784Z,101905.42
2022-10-05T04:25:30.060Z,101910.41
2022-10-05T04:28:06.697Z,101917.17
2022-10-05T04:30:42.057Z,101923.61
2022-10-05T04:33:16.171Z,101925.94
2022-10-05T04:36:11.011Z,101932.52
2022-10-05T04:38:50.735Z,101934.13
2022-10-05T04:41:35.123Z,101941.77
2022-10-05T04:44:27.945Z,101952.32
2022-10-05T04:47:36.046Z,101953.25
2022-10-05T04:50:22.084Z,101959.58
2022-10-05T04:53:05.597Z,101958.34
2022-10-05T04:55:41.652Z,101956.02
2022-10-05T04:58:22.131Z,101952.90
2022-10-05T05:01:07.047Z,101955.52
2022-10-05T05:03:53.051Z,101953.55
2022-10-05T05:06:36.033Z,101958.27
2022-10-05T05:10:24.487Z,101958.79
2022-10-05T05:13:02.656Z,101964.67
2022-10-05T05:15:43.493Z,101968.08
2022-10-05T05:18:35.135Z,101968.76
2022-10-05T05:21:21.455Z,101966.53
2022-10-05T05:24:07.532Z,101967.49
2022-10-05T05:26:56.084Z,101968.80
2022-10-05T05:29:43.194Z,101968.48
2022-10-05T05:34:26.553Z,101973.47
2022-10-05T05:37:07.849Z,101972.34
2022-10-05T05:39:47.189Z,101976.60
2022-10-05T05:42:29.702Z,101970.38
2022-10-05T05:45:07.842Z,101971.05
2022-10-05T05:47:43.874Z,101980.45
2022-10-05T05:50:32.718Z,101984.54
2022-10-05T05:53:11.225Z,101989.25
2022-10-05T05:55:46.368Z,101994.47
2022-10-05T05:58:23.553Z,102004.52
2022-10-05T06:01:01.494Z,102009.29
2022-10-05T06:03:39.335Z,102013.79
2022-10-05T06:06:13.208Z,102020.20
2022-10-05T06:08:52.953Z,102025.58
2022-10-05T06:11:28.121Z,102027.16
2022-10-05T06:14:03.234Z,102027.33
2022-10-05T06:16:38.744Z,102022.70
2022-10-05T06:19:15.016Z,102026.71
2022-10-05T06:21:49.661Z,102032.25
2022-10-05T06:24:26.349Z,102036.45
2022-10-05T06:27:22.880Z,102034.84
2022-10-05T06:30:06.398Z,102035.41
2022-10-05T06:32:52.234Z,102035.48
2022-10-05T06:35:33.555Z,102035.43
2022-10-05T06:38:16.925Z,102037.57
2022-10-05T06:41:03.973Z,102036.31
2022-10-05T06:43:47.737Z,102039.92
2022-10-05T06:46:25.045Z,102040.59
2022-10-05T06:49:13.589Z,102040.14
2022-10-05T06:51:51.989Z,102034.90
2022-10-05T06:54:43.980Z,102032.67
2022-10-05T06:57:30.224Z,102037.90
2022-10-05T07:00:06.090Z,102037.46
2022-10-05T07:02:45.279Z,102037.45
2022-10-05T07:05:47.497Z,102039.53
2022-10-05T07:08:25.146Z,102045.52
2022-10-05T07:11:08.400Z,102047.50
2022-10-05T07:14:00.488Z,102044.71
2022-10-05T07:16:42.616Z,102044.08
2022-10-05T07:19:23.705Z,102048.22
2022-10-05T07:22:10.730Z,102051.89
2022-10-05T07:24:46.644Z,102050.45
2022-10-05T07:27:21.320Z,102053.41
2022-10-05T07:29:59.129Z,102048.61
2022-10-05T07:32:36.736Z,102044.20
2022-10-05T07:35:33.540Z,102043.53
2022-10-05T07:38:08.581Z,102045.05
2022-10-05T07:40:43.016Z,102049.70
2022-10-05T07:43:23.125Z,102052.51
2022-10-05T07:45:59.361Z,102055.37
2022-10-05T07:48:39.555Z,102051.34
2022-10-05T07:51:17.248Z,102056.05
2022-10-05T07:54:08.177Z,102056.63
2022-10-05T07:56:43.497Z,102057.09
2022-10-05T07:59:21.216Z,102061.70
2022-10-05T08:02:00.248Z,102064.74
2022-10-05T08:04:41.782Z,102068.61
2022-10-05T08:07:16.667Z,102070.36
2022-10-05T08:09:54.755Z,102072.45
2022-10-05T08:12:34.542Z,102074.42
2022-10-05T08:15:11.292Z,102072.02
2022-10-05T08:17:49.952Z,102071.89
2022-10-05T08:20:40.152Z,102079.13
2022-10-05T08:23:21.282Z,102079.77
2022-10-05T08:26:01.515Z,102078.89
2022-10-05T08:28:38.402Z,102083.23
2022-10-05T08:31:18.404Z,102084.40
2022-10-05T08:33:58.734Z,102086.55
2022-10-05T08:36:44.922Z,102085.34
2022-10-05T08:39:19.580Z,102087.53
2022-10-05T08:42:06.979Z,102088.65
2022-10-05T08:45:24.587Z,102086.48
2022-10-05T08:48:30.119Z,102092.79
2022-10-05T08:51:30.465Z,102090.70
2022-10-05T08:54:21.920Z,102088.20
2022-10-05T08:57:05.085Z,102089.91
2022-10-05T08:59:57.546Z,102093.77
2022-10-05T09:02:38.763Z,102103.92
2022-10-05T09:05:28.900Z,102104.45
2022-10-05T09:08:27.192Z,102099.92
2022-10-05T09:11:14.751Z,102099.10
2022-10-05T09:14:11.650Z,102101.22
2022-10-05T09:17:00.003Z,102100.63
2022-10-05T09:19:55.413Z,102101.94
2022-10-05T09:22:51.441Z,102098.11
2022-10-05T09:25:27.734Z,102097.14
2022-10-05T09:28:05.151Z,102097.54
2022-10-05T09:30:49.865Z,102097.32
2022-10-05T09:33:53.250Z,102097.26
2022-10-05T09:36:55.609Z,102096.90
2022-10-05T09:39:48.328Z,102098.02
2022-10-05T09:42:58.800Z,102098.02
2022-10-05T09:45:53.426Z,102095.58
2022-10-05T09:48:55.401Z,102097.33
2022-10-05T09:52:06.359Z,102096.91
2022-10-05T09:55:09.074Z,102094.20
2022-10-05T09:58:20.637Z,102095.65
2022-10-05T10:01:09.827Z,102088.77
2022-10-05T10:04:07.280Z,102082.74
2022-10-05T10:07:13.446Z,102079.94
2022-10-05T10:09:57.867Z,102074.38
2022-10-05T10:12:38.538Z,102069.55
2022-10-05T10:15:35.921Z,102063.48
2022-10-05T10:18:32.868Z,102060.75
2022-10-05T10:21:15.604Z,102056.41
2022-10-05T10:24:00.482Z,102053.35
2022-10-05T10:26:58.422Z,102052.99
2022-10-05T10:29:53.783Z,102051.36
2022-10-05T10:33:11.916Z,102048.73
2022-10-05T10:35:49.511Z,102048.72
2022-10-05T10:38:36.679Z,102043.66
2022-10-05T10:41:29.334Z,102036.23
2022-10-05T10:44:16.195Z,102028.27
2022-10-05T10:46:57.681Z,102024.02
2022-10-05T10:49:41.331Z,102020.31
2022-10-05T10:52:31.462Z,102017.02
2022-10-05T10:55:19.735Z,102016.02
2022-10-05T10:58:16.507Z,102011.54
2022-10-05T11:00:54.983Z,102012.35
2022-10-05T11:03:57.337Z,102013.64
2022-10-05T11:06:54.285Z,102011.16
2022-10-05T11:09:52.177Z,102014.31
2022-10-05T11:12:51.181Z,102014.30
2022-10-05T11:15:51.887Z,102017.09
2022-10-05T11:18:25.881Z,102017.42
2022-10-05T11:21:22.056Z,102024.25
2022-10-05T11:24:32.743Z,102026.60
2022-10-05T11:27:31.341Z,102022.73
2022-10-05T11:30:39.298Z,102023.11
2022-10-05T11:33:43.083Z,102023.12
2022-10-05T11:36:49.325Z,102026.44
2022-10-05T11:39:37.276Z,102024.34
2022-10-05T11:42:54.905Z,102023.81
2022-10-05T11:45:28.937Z,102013.77
2022-10-05T11:48:17.238Z,102019.42
2022-10-05T11:50:59.952Z,102015.25
2022-10-05T11:53:34.847Z,102009.25
2022-10-05T11:56:14.817Z,101992.98
2022-10-05T11:58:51.391Z,101987.41
2022-10-05T12:01:28.845Z,101991.76
2022-10-05T12:04:09.530Z,101984.83
2022-10-05T12:06:52.585Z,101978.58
2022-10-05T12:09:38.893Z,101973.84
2022-10-05T12:12:18.008Z,101972.64
2022-10-05T12:14:57.775Z,101972.29
2022-10-05T12:17:37.074Z,101973.61
2022-10-05T12:20:15.897Z,101975.19
2022-10-05T12:22:52.216Z,101979.76
2022-10-05T12:25:28.794Z,101984.70
2022-10-05T12:28:05.126Z,101985.18
2022-10-05T12:31:07.743Z,101986.16
2022-10-05T12:33:44.205Z,101983.96
2022-10-05T12:36:19.310Z,101980.45
2022-10-05T12:38:56.664Z,101979.17
2022-10-05T12:41:33.381Z,101981.47
2022-10-05T12:44:13.028Z,101982.09
2022-10-05T12:46:52.712Z,101983.61
2022-10-05T12:49:33.387Z,101983.44
2022-10-05T12:52:08.308Z,101978.30
2022-10-05T12:54:47.228Z,101979.92
2022-10-05T12:57:24.319Z,101985.20
2022-10-05T13:00:00.389Z,101979.02
2022-10-05T13:02:42.461Z,101979.48
2022-10-05T13:05:27.001Z,101973.64
2022-10-05T13:08:21.748Z,101969.41
2022-10-05T13:11:01.709Z,101971.10
2022-10-05T13:13:44.348Z,101966.85
2022-10-05T13:16:27.435Z,101966.79
2022-10-05T13:19:10.025Z,101958.80
2022-10-05T13:21:55.215Z,101960.36
2022-10-05T13:24:30.871Z,101956.94
2022-10-05T13:27:08.639Z,101951.62
2022-10-05T13:29:43.746Z,101946.94
2022-10-05T13:32:20.804Z,101946.09
2022-10-05T13:34:58.992Z,101938.09
2022-10-05T13:37:40.314Z,101932.40
2022-10-05T13:40:21.823Z,101930.99
2022-10-05T13:42:58.051Z,101935.68
2022-10-05T13:45:33.701Z,101936.42
2022-10-05T13:48:16.901Z,101936.78
2022-10-05T13:51:02.147Z,101938.29
2022-10-05T13:53:41.256Z,101937.98
2022-10-05T13:56:21.010Z,101935.99
2022-10-05T13:58:56.195Z,101943.64
2022-10-05T14:01:35.850Z,101946.27
2022-10-05T14:04:11.503Z,101947.52
2022-10-05T14:06:43.655Z,101940.09
2022-10-05T14:09:30.737Z,101938.09
2022-10-05T14:12:22.709Z,101939.02
2022-10-05T14:14:56.489Z,101941.05
2022-10-05T14:17:42.180Z,101938.61
2022-10-05T14:20:25.233Z,101936.44
2022-10-05T14:23:01.936Z,101935.78
2022-10-05T14:25:34.853Z,101936.45
2022-10-05T14:28:25.832Z,101938.70
2022-10-05T14:31:02.959Z,101939.71
2022-10-05T14:33:36.416Z,101936.71
2022-10-05T14:36:12.456Z,101941.31
2022-10-05T14:39:00.775Z,101939.14
2022-10-05T14:41:37.676Z,101938.40
2022-10-05T14:44:30.427Z,101936.61
2022-10-05T14:47:02.912Z,101935.24
2022-10-05T14:49:37.546Z,101933.73
2022-10-05T14:52:32.979Z,101930.02
2022-10-05T14:55:17.812Z,101928.30
2022-10-05T14:58:08.783Z,101931.67
2022-10-05T15:00:48.929Z,101931.83
2022-10-05T15:03:33.332Z,101931.27
2022-10-05T15:06:07.085Z,101930.11
2022-10-05T15:08:54.196Z,101925.53
2022-10-05T15:11:37.592Z,101927.35
2022-10-05T15:14:16.471Z,101928.02
2022-10-05T15:16:49.380Z,101937.20
2022-10-05T15:19:26.033Z,101931.83
2022-10-05T15:22:11.581Z,101933.48
2022-10-05T15:24:47.329Z,101935.96
2022-10-05T15:27:26.372Z,101938.80
2022-10-05T15:30:07.835Z,101945.64
2022-10-05T15:32:47.657Z,101948.34
2022-10-05T15:36:02.484Z,101950.77
2022-10-05T15:38:39.644Z,101950.36
2022-10-05T15:41:16.183Z,101949.17
2022-10-05T15:44:06.622Z,101954.70
2022-10-05T15:46:46.207Z,101956.55
2022-10-05T15:49:25.913Z,101954.34
2022-10-05T15:52:04.446Z,101956.40
2022-10-05T15:57:45.548Z,101958.63
2022-10-05T16:00:20.050Z,101964.16
2022-10-05T16:02:58.325Z,101964.88
2022-10-05T16:05:58.316Z,101965.96
2022-10-05T16:08:54.360Z,101965.55
2022-10-05T16:11:37.041Z,101966.58
2022-10-05T16:14:09.989Z,101968.91
2022-10-05T16:16:50.037Z,101969.13
2022-10-05T16:19:26.502Z,101973.92
2022-10-05T16:22:05.151Z,101984.21
2022-10-05T16:25:09.209Z,101984.68
2022-10-05T16:27:52.715Z,101987.20
2022-10-05T16:30:26.546Z,101984.31
2022-10-05T16:33:04.716Z,101985.55
2022-10-05T16:35:44.452Z,101988.42
2022-10-05T16:38:26.011Z,101989.62
2022-10-05T16:41:03.832Z,101994.16
2022-10-05T16:43:46.049Z,101993.36
2022-10-05T16:46:27.926Z,101994.21
2022-10-05T16:49:07.466Z,101994.44
2022-10-05T16:51:47.008Z,101995.33
2022-10-05T16:54:21.670Z,102001.56
2022-10-05T16:56:59.826Z,102003.70
2022-10-05T17:00:08.910Z,102005.45
2022-10-05T17:03:02.151Z,102009.63
2022-10-05T17:05:55.783Z,102012.52
2022-10-05T17:08:40.911Z,102012.55
2022-10-05T17:11:23.597Z,102014.83
2022-10-05T17:13:57.371Z,102011.58
2022-10-05T17:16:36.156Z,102016.64
2022-10-05T17:19:29.164Z,102020.40
2022-10-05T17:22:03.468Z,102019.86
2022-10-05T17:24:50.963Z,102021.72
2022-10-05T17:27:36.075Z,102025.34
2022-10-05T17:30:47.489Z,102025.89
2022-10-05T17:33:25.301Z,102026.77
2022-10-05T17:39:14.545Z,102029.52
2022-10-05T17:41:46.923Z,102030.64
2022-10-05T17:44:29.364Z,102031.05
2022-10-05T17:47:04.200Z,102033.17
2022-10-05T17:50:16.802Z,102035.27
2022-10-05T17:53:39.638Z,102042.39
2022-10-05T17:56:11.839Z,102043.02
2022-10-05T17:59:03.966Z,102045.27
2022-10-05T18:01:38.182Z,102049.58
2022-10-05T18:04:42.594Z,102050.65
2022-10-05T18:07:27.808Z,102053.27
2022-10-05T18:10:29.135Z,102055.66
2022-10-05T18:13:33.007Z,102055.38
2022-10-05T18:16:05.280Z,102051.27
2022-10-05T18:18:57.398Z,102055.17
2022-10-05T18:21:41.615Z,102054.90
2022-10-05T18:24:39.081Z,102055.60
2022-10-05T18:27:30.556Z,102058.82
2022-10-05T18:30:08.922Z,102062.47
2022-10-05T18:33:14.124Z,102061.23
2022-10-05T18:35:53.975Z,102058.48
2022-10-05T18:38:39.060Z,102060.20
2022-10-05T18:41:20.208Z,102061.53
2022-10-05T18:44:00.097Z,102059.05
2022-10-05T18:46:39.218Z,102064.08
2022-10-05T18:49:26.213Z,102062.27
2022-10-05T18:52:03.929Z,102062.79
2022-10-05T18:54:48.306Z,102062.79
2022-10-05T18:57:40.560Z,102063.52
2022-10-05T19:00:18.811Z,102067.30
2022-10-05T19:02:53.795Z,102067.96
2022-10-05T19:05:48.653Z,102072.45
2022-10-05T19:08:27.763Z,102070.03
2022-10-05T19:11:06.297Z,102068.50
2022-10-05T19:13:44.918Z,102069.70
2022-10-05T19:16:26.257Z,102071.99
2022-10-05T19:19:12.920Z,102066.39
2022-10-05T19:21:50.970Z,102073.96
2022-10-05T19:24:53.110Z,102074.80
2022-10-05T19:27:33.995Z,102079.64
2022-10-05T19:30:19.373Z,102081.23
2022-10-05T19:33:05.714Z,102081.46
2022-10-05T19:35:45.109Z,102078.81
2022-10-05T19:38:25.961Z,102080.27
2022-10-05T19:41:05.576Z,102081.40
2022-10-05T19:43:53.745Z,102081.97
2022-10-05T19:46:34.909Z,102087.34
2022-10-05T19:49:09.174Z,102086.36
2022-10-05T19:51:51.729Z,102083.77
2022-10-05T19:54:29.958Z,102086.60
2022-10-05T19:57:03.033Z,102092.05
2022-10-05T19:59:35.665Z,102090.91
2022-10-05T20:02:07.875Z,102095.30
2022-10-05T20:04:41.262Z,102097.79
2022-10-05T20:07:17.439Z,102099.88
2022-10-05T20:09:55.210Z,102097.60
2022-10-05T20:12:50.948Z,102095.77
2022-10-05T20:15:42.841Z,102096.49
2022-10-05T20:18:57.021Z,102100.23
2022-10-05T20:22:00.040Z,102103.86
2022-10-05T20:24:33.426Z,102102.30
2022-10-05T20:27:06.292Z,102102.65
2022-10-05T20:29:40.558Z,102094.89
2022-10-05T20:32:14.159Z,102098.40
2022-10-05T20:34:49.367Z,102098.21
2022-10-05T20:37:21.861Z,102097.13
2022-10-05T20:39:54.139Z,102098.52
2022-10-05T20:42:26.831Z,102098.38
2022-10-05T20:44:59.077Z,102098.30
2022-10-05T20:47:31.218Z,102101.05
2022-10-05T20:50:05.185Z,102103.16
2022-10-05T20:52:38.438Z,102098.34
2022-10-05T20:55:12.664Z,102098.36
2022-10-05T20:57:46.307Z,102090.83
2022-10-05T21:00:18.787Z,102091.73
2022-10-05T21:02:50.935Z,102084.31
2022-10-05T21:05:23.090Z,102086.82
2022-10-05T21:07:55.324Z,102083.03
2022-10-05T21:10:27.413Z,102082.18
2022-10-05T21:13:03.065Z,102083.14
2022-10-05T21:15:35.148Z,102081.16
2022-10-05T21:18:07.420Z,102080.08
2022-10-05T21:20:39.509Z,102080.69
2022-10-05T21:23:12.335Z,102075.91
2022-10-05T21:25:44.472Z,102076.11
2022-10-05T21:28:16.944Z,102074.21
2022-10-05T21:30:49.160Z,102072.54
2022-10-05T21:33:21.622Z,102067.48
2022-10-05T21:35:53.735Z,102067.95
2022-10-05T21:38:26.336Z,102065.91
2022-10-05T21:40:58.848Z,102063.13
2022-10-05T21:43:31.184Z,102058.13
2022-10-05T21:46:02.278Z,102057.74
2022-10-05T21:48:36.397Z,102051.26
2022-10-05T21:51:10.843Z,102052.14
2022-10-05T21:53:45.795Z,102053.51
2022-10-05T21:56:20.188Z,102058.51
2022-10-05T21:58:53.196Z,102056.52
2022-10-05T22:01:25.339Z,102053.11
2022-10-05T22:03:58.032Z,102050.69
2022-10-05T22:06:28.472Z,102050.77
2022-10-05T22:09:00.821Z,102046.92
2022-10-05T22:11:32.960Z,102053.90
2022-10-05T22:14:05.221Z,102054.88
2022-10-05T22:16:40.295Z,102047.59
2022-10-05T22:19:17.179Z,102046.83
2022-10-05T22:21:49.304Z,102042.94
2022-10-05T22:24:21.399Z,102044.62
2022-10-05T22:26:53.733Z,102043.47
2022-10-05T22:29:25.831Z,102039.90
2022-10-05T22:31:59.378Z,102040.94
2022-10-05T22:34:31.672Z,102035.89
2022-10-05T22:37:04.254Z,102036.79
2022-10-05T22:39:34.672Z,102035.66
2022-10-05T22:42:07.047Z,102029.58
2022-10-05T22:44:40.371Z,102030.27
2022-10-05T22:47:12.463Z,102030.63
2022-10-05T22:49:44.657Z,102025.48
2022-10-05T22:52:16.758Z,102026.45
2022-10-05T22:54:48.884Z,102029.04
2022-10-05T22:57:21.270Z,102028.16
2022-10-05T22:59:51.903Z,102033.19
2022-10-05T23:02:23.984Z,102031.23
2022-10-05T23:04:56.159Z,102034.80
2022-10-05T23:07:28.306Z,102035.13
2022-10-05T23:10:00.456Z,102040.70
2022-10-05T23:12:32.681Z,102042.47
2022-10-05T23:15:05.495Z,102033.27
2022-10-05T23:17:39.452Z,102035.89
2022-10-05T23:20:12.585Z,102036.46
2022-10-05T23:22:44.678Z,102034.30
2022-10-05T23:25:17.963Z,102031.53
2022-10-05T23:27:50.164Z,102029.55
2022-10-05T23:30:22.434Z,102026.11
2022-10-05T23:32:54.766Z,102020.59
2022-10-05T23:35:26.842Z,102016.58
2022-10-05T23:37:59.002Z,102016.82
2022-10-05T23:40:31.098Z,102016.55
2022-10-05T23:43:03.170Z,102018.29
2022-10-05T23:45:35.338Z,102015.89
2022-10-05T23:48:07.424Z,102016.18
2022-10-05T23:50:40.276Z,102014.23
2022-10-05T23:53:12.390Z,102015.66
2022-10-05T23:55:44.780Z,102013.36
2022-10-05T23:58:17.154Z,102013.12
